Time;durP1;ratioP1;P1;durP2;ratioP2;P2;SDS_P1;SDS_P2;PMS_P1;PMS_P2;Temp;Humidity;BMP_temperature;BMP_pressure;BME280_temperature;BME280_humidity;BME280_pressure;Samples;Min_cycle;Max_cycle;Signal;HPM_P1;HPM_P2
2023/05/06 00:00:17;;;;;;;15.30;11.45;;;;;;;;;;5069320;28;20592;-61
2023/05/06 00:02:42;;;;;;;15.95;12.68;;;;;;;;;;5068276;28;20225;-61
2023/05/06 00:05:08;;;;;;;15.50;12.02;;;;;;;;;;5068333;28;20207;-61
2023/05/06 00:07:33;;;;;;;14.70;11.50;;;;;;;;;;5069534;28;20250;-61
2023/05/06 00:09:58;;;;;;;15.43;11.85;;;;;;;;;;5081951;28;20285;-61
2023/05/06 00:12:24;;;;;;;17.38;12.95;;;;;;;;;;5092679;28;20379;-61
2023/05/06 00:14:49;;;;;;;17.80;12.73;;;;;;;;;;5078317;28;20226;-61
2023/05/06 00:17:15;;;;;;;16.45;12.68;;;;;;;;;;5087198;28;20205;-61
2023/05/06 00:19:41;;;;;;;16.42;12.32;;;;;;;;;;5093162;28;20221;-61
2023/05/06 00:22:06;;;;;;;15.50;12.75;;;;;;;;;;5093167;28;20214;-61
2023/05/06 00:24:31;;;;;;;16.27;13.50;;;;;;;;;;5093162;28;20282;-61
2023/05/06 00:26:57;;;;;;;14.68;12.25;;;;;;;;;;5078923;28;20285;-61
2023/05/06 00:29:22;;;;;;;15.65;12.70;;;;;;;;;;5073212;28;20216;-61
2023/05/06 00:31:47;;;;;;;15.50;13.15;;;;;;;;;;5072612;28;20472;-61
2023/05/06 00:34:13;;;;;;;18.30;15.20;;;;;;;;;;5071761;28;20214;-61
2023/05/06 00:36:38;;;;;;;15.50;13.23;;;;;;;;;;5073304;28;20641;-61
2023/05/06 00:39:04;;;;;;;16.95;14.02;;;;;;;;;;5072119;28;20238;-61
2023/05/06 00:41:31;;;;;;;16.95;14.00;;;;;;;;;;5073260;28;20207;-61
2023/05/06 00:43:56;;;;;;;18.92;15.30;;;;;;;;;;5073392;28;20221;-61
2023/05/06 00:46:21;;;;;;;18.17;14.85;;;;;;;;;;5072028;28;20291;-61
2023/05/06 00:48:47;;;;;;;17.45;14.93;;;;;;;;;;5073044;28;20214;-61
2023/05/06 00:51:12;;;;;;;16.50;14.10;;;;;;;;;;5072559;28;20467;-61
2023/05/06 00:53:38;;;;;;;18.25;13.98;;;;;;;;;;5070812;28;20210;-61
2023/05/06 00:56:04;;;;;;;20.38;14.63;;;;;;;;;;5071230;28;20234;-62
2023/05/06 00:58:29;;;;;;;16.90;14.30;;;;;;;;;;5071745;28;20249;-61
2023/05/06 01:00:54;;;;;;;19.05;15.43;;;;;;;;;;5072156;28;20580;-61
2023/05/06 01:03:20;;;;;;;17.60;14.82;;;;;;;;;;5070940;28;20580;-61
2023/05/06 01:05:50;;;;;;;18.52;15.45;;;;;;;;;;5072951;28;20821;-61
2023/05/06 01:08:16;;;;;;;21.77;14.68;;;;;;;;;;5071573;28;20206;-61
2023/05/06 01:10:51;;;;;;;18.20;15.05;;;;;;;;;;5086585;28;20224;-62
2023/05/06 01:13:20;;;;;;;21.15;16.58;;;;;;;;;;5091179;28;20240;-61
2023/05/06 01:15:47;;;;;;;17.88;15.38;;;;;;;;;;5088939;28;20716;-61
2023/05/06 01:18:15;;;;;;;21.13;16.92;;;;;;;;;;5070700;28;20297;-61
2023/05/06 01:20:42;;;;;;;20.60;15.90;;;;;;;;;;5070876;28;20224;-61
2023/05/06 01:23:09;;;;;;;17.10;15.02;;;;;;;;;;5070654;28;20275;-61
2023/05/06 01:25:35;;;;;;;23.20;16.38;;;;;;;;;;5072397;28;20207;-61
2023/05/06 01:28:00;;;;;;;23.02;17.05;;;;;;;;;;5071626;28;20249;-61
2023/05/06 01:30:26;;;;;;;21.73;17.08;;;;;;;;;;5072122;28;20255;-61
2023/05/06 01:32:57;;;;;;;19.70;15.95;;;;;;;;;;5071275;28;20221;-61
2023/05/06 01:35:26;;;;;;;22.73;16.80;;;;;;;;;;5071113;28;20217;-61
2023/05/06 01:37:55;;;;;;;19.75;15.63;;;;;;;;;;5070888;28;20210;-61
2023/05/06 01:40:20;;;;;;;18.27;15.45;;;;;;;;;;5071624;28;20777;-61
2023/05/06 01:42:46;;;;;;;22.20;17.40;;;;;;;;;;5062265;28;20320;-61
2023/05/06 01:45:11;;;;;;;21.45;17.90;;;;;;;;;;5076103;28;20286;-61
2023/05/06 01:47:37;;;;;;;23.92;17.35;;;;;;;;;;5069873;28;20716;-61
2023/05/06 01:50:02;;;;;;;21.08;17.35;;;;;;;;;;5065351;28;20222;-61
2023/05/06 01:52:27;;;;;;;21.70;16.85;;;;;;;;;;5058107;28;20210;-61
2023/05/06 01:54:52;;;;;;;21.60;17.70;;;;;;;;;;5061871;28;20609;-61
2023/05/06 01:57:18;;;;;;;20.33;16.92;;;;;;;;;;5061095;28;20287;-61
2023/05/06 01:59:43;;;;;;;21.60;17.90;;;;;;;;;;5077766;28;20206;-61
2023/05/06 02:02:08;;;;;;;21.95;18.48;;;;;;;;;;5081624;28;20233;-61
2023/05/06 02:04:34;;;;;;;21.25;18.25;;;;;;;;;;5081136;28;20210;-61
2023/05/06 02:06:59;;;;;;;22.52;19.17;;;;;;;;;;5064599;28;20669;-61
2023/05/06 02:09:24;;;;;;;24.65;17.55;;;;;;;;;;5054604;28;20210;-61
2023/05/06 02:11:50;;;;;;;23.27;18.67;;;;;;;;;;5053476;28;20234;-61
2023/05/06 02:14:15;;;;;;;21.88;17.98;;;;;;;;;;5054395;28;20259;-61
2023/05/06 02:16:40;;;;;;;21.83;18.27;;;;;;;;;;5061701;28;20242;-61
2023/05/06 02:19:06;;;;;;;23.80;18.83;;;;;;;;;;5060159;28;20271;-61
2023/05/06 02:21:31;;;;;;;22.02;17.98;;;;;;;;;;5062094;28;20600;-61
2023/05/06 02:23:57;;;;;;;21.75;19.08;;;;;;;;;;5061377;28;20591;-61
2023/05/06 02:26:22;;;;;;;21.75;19.23;;;;;;;;;;5061220;28;20218;-61
2023/05/06 02:28:47;;;;;;;21.45;18.33;;;;;;;;;;5061917;28;20206;-61
2023/05/06 02:31:14;;;;;;;24.30;20.38;;;;;;;;;;5054804;28;20578;-61
2023/05/06 02:33:40;;;;;;;22.15;19.13;;;;;;;;;;5068735;28;20294;-61
2023/05/06 02:36:05;;;;;;;22.83;19.10;;;;;;;;;;5068493;28;20230;-61
2023/05/06 02:38:30;;;;;;;25.27;21.05;;;;;;;;;;5059082;28;20590;-61
2023/05/06 02:40:55;;;;;;;23.73;20.33;;;;;;;;;;5075851;28;20920;-61
2023/05/06 02:43:21;;;;;;;25.33;20.20;;;;;;;;;;5077906;28;20290;-61
2023/05/06 02:45:47;;;;;;;28.08;21.75;;;;;;;;;;5069437;28;20566;-61
2023/05/06 02:48:12;;;;;;;23.55;20.70;;;;;;;;;;5069065;28;20252;-61
2023/05/06 02:50:37;;;;;;;29.33;22.80;;;;;;;;;;5070458;28;20211;-61
2023/05/06 02:53:03;;;;;;;25.13;20.88;;;;;;;;;;5069575;28;20256;-61
2023/05/06 02:55:28;;;;;;;24.63;20.27;;;;;;;;;;5070362;28;20246;-61
2023/05/06 02:57:53;;;;;;;27.05;21.83;;;;;;;;;;5070731;28;20267;-61
2023/05/06 03:00:19;;;;;;;23.35;20.85;;;;;;;;;;5069349;28;20221;-60
2023/05/06 03:02:44;;;;;;;25.13;21.88;;;;;;;;;;5070457;28;20248;-61
2023/05/06 03:05:10;;;;;;;29.35;21.42;;;;;;;;;;5071565;28;20638;-61
2023/05/06 03:07:35;;;;;;;26.58;22.23;;;;;;;;;;5090118;28;20206;-61
2023/05/06 03:10:00;;;;;;;24.50;20.85;;;;;;;;;;5080595;28;20206;-62
2023/05/06 03:12:26;;;;;;;27.65;22.63;;;;;;;;;;5070246;28;20772;-61
2023/05/06 03:14:51;;;;;;;25.13;21.08;;;;;;;;;;5069489;28;20245;-61
2023/05/06 03:17:16;;;;;;;25.40;22.17;;;;;;;;;;5066231;28;20313;-61
2023/05/06 03:19:41;;;;;;;27.50;22.45;;;;;;;;;;5078339;28;20239;-61
2023/05/06 03:22:07;;;;;;;25.25;22.40;;;;;;;;;;5089357;28;20213;-61
2023/05/06 03:24:32;;;;;;;27.08;22.13;;;;;;;;;;5090454;28;20680;-61
2023/05/06 03:26:57;;;;;;;26.80;22.35;;;;;;;;;;5069861;28;20299;-61
2023/05/06 03:29:23;;;;;;;29.55;23.10;;;;;;;;;;5068957;28;20225;-61
2023/05/06 03:31:49;;;;;;;28.60;22.83;;;;;;;;;;5069807;28;20712;-61
2023/05/06 03:34:15;;;;;;;26.73;23.10;;;;;;;;;;5068947;28;20218;-60
2023/05/06 03:36:40;;;;;;;26.85;22.63;;;;;;;;;;5070109;28;20222;-61
2023/05/06 03:39:05;;;;;;;30.52;22.10;;;;;;;;;;5069550;28;20288;-61
2023/05/06 03:41:31;;;;;;;29.02;22.52;;;;;;;;;;5069081;28;20202;-61
2023/05/06 03:43:56;;;;;;;27.60;21.92;;;;;;;;;;5077868;28;20612;-60
2023/05/06 03:46:21;;;;;;;29.17;22.85;;;;;;;;;;5063145;28;20218;-60
2023/05/06 03:48:46;;;;;;;27.83;22.88;;;;;;;;;;5060125;28;20230;-60
2023/05/06 03:51:12;;;;;;;29.83;23.55;;;;;;;;;;5059336;28;20215;-60
2023/05/06 03:53:37;;;;;;;32.30;23.30;;;;;;;;;;5075221;28;20214;-60
2023/05/06 03:56:03;;;;;;;27.95;23.15;;;;;;;;;;5053012;28;20319;-61
2023/05/06 03:58:29;;;;;;;28.58;22.70;;;;;;;;;;5052595;28;20277;-61
2023/05/06 04:00:54;;;;;;;27.10;21.98;;;;;;;;;;5052603;28;20707;-61
2023/05/06 04:03:19;;;;;;;26.17;21.70;;;;;;;;;;5057155;28;20283;-61
2023/05/06 04:05:45;;;;;;;28.60;22.65;;;;;;;;;;5072849;28;20298;-61
2023/05/06 04:08:10;;;;;;;28.17;22.65;;;;;;;;;;5059544;28;20221;-61
2023/05/06 04:10:39;;;;;;;29.23;23.00;;;;;;;;;;5059471;28;20238;-61
2023/05/06 04:13:05;;;;;;;31.52;23.23;;;;;;;;;;5074149;28;20731;-61
2023/05/06 04:15:33;;;;;;;27.52;23.38;;;;;;;;;;5079309;28;20241;-61
2023/05/06 04:17:58;;;;;;;29.73;23.58;;;;;;;;;;5056232;28;20211;-61
2023/05/06 04:20:23;;;;;;;30.50;23.73;;;;;;;;;;5051588;28;20206;-61
2023/05/06 04:22:49;;;;;;;31.77;24.75;;;;;;;;;;5052100;28;20945;-61
2023/05/06 04:25:14;;;;;;;29.75;24.13;;;;;;;;;;5054434;28;20498;-61
2023/05/06 04:27:40;;;;;;;28.27;23.42;;;;;;;;;;5079025;28;20221;-61
2023/05/06 04:30:05;;;;;;;34.33;25.55;;;;;;;;;;5079041;28;20307;-61
2023/05/06 04:32:32;;;;;;;34.38;27.65;;;;;;;;;;5078751;28;20592;-61
2023/05/06 04:34:58;;;;;;;38.45;28.10;;;;;;;;;;5078204;28;20600;-61
2023/05/06 04:37:23;;;;;;;39.50;29.05;;;;;;;;;;5079010;28;20677;-61
2023/05/06 04:39:48;;;;;;;44.40;28.92;;;;;;;;;;5078005;28;20305;-61
2023/05/06 04:42:15;;;;;;;45.97;29.30;;;;;;;;;;5071570;28;20470;-61
2023/05/06 04:44:41;;;;;;;49.15;36.15;;;;;;;;;;5051248;28;20669;-61
2023/05/06 04:47:06;;;;;;;53.78;30.58;;;;;;;;;;5072456;28;20584;-61
2023/05/06 04:49:31;;;;;;;55.38;36.78;;;;;;;;;;5078166;28;20919;-62
2023/05/06 04:51:57;;;;;;;53.50;30.05;;;;;;;;;;5078646;28;20260;-63
2023/05/06 04:54:22;;;;;;;36.83;28.52;;;;;;;;;;5061409;28;20221;-63
2023/05/06 04:56:47;;;;;;;70.20;29.20;;;;;;;;;;5062122;28;20283;-64
2023/05/06 04:59:12;;;;;;;44.45;27.85;;;;;;;;;;5071450;28;20221;-64
2023/05/06 05:01:38;;;;;;;33.80;22.65;;;;;;;;;;5083172;28;20210;-63
2023/05/06 05:04:03;;;;;;;60.40;23.98;;;;;;;;;;5077006;28;20214;-63
2023/05/06 05:06:28;;;;;;;38.20;23.10;;;;;;;;;;5073286;28;20796;-63
2023/05/06 05:08:54;;;;;;;31.95;23.52;;;;;;;;;;5072995;28;20217;-63
2023/05/06 05:11:19;;;;;;;44.22;20.52;;;;;;;;;;5060732;28;20732;-63
2023/05/06 05:13:45;;;;;;;24.67;17.73;;;;;;;;;;5062042;28;20230;-63
2023/05/06 05:16:10;;;;;;;18.70;16.63;;;;;;;;;;5064761;28;20218;-63
2023/05/06 05:18:35;;;;;;;20.17;16.63;;;;;;;;;;5083093;28;20301;-63
2023/05/06 05:21:01;;;;;;;31.52;17.50;;;;;;;;;;5062442;28;20586;-62
2023/05/06 05:23:26;;;;;;;17.70;15.88;;;;;;;;;;5062683;28;20207;-63
2023/05/06 05:25:51;;;;;;;18.58;16.30;;;;;;;;;;5071602;28;20343;-63
2023/05/06 05:28:17;;;;;;;19.55;17.02;;;;;;;;;;5080191;28;20206;-63
2023/05/06 05:30:42;;;;;;;18.20;16.30;;;;;;;;;;5083763;28;20277;-62
2023/05/06 05:33:07;;;;;;;20.63;18.50;;;;;;;;;;5082921;28;20271;-63
2023/05/06 05:35:32;;;;;;;21.80;18.55;;;;;;;;;;5080878;28;20222;-63
2023/05/06 05:37:58;;;;;;;21.98;19.45;;;;;;;;;;5086526;28;20201;-63
2023/05/06 05:40:23;;;;;;;24.15;21.30;;;;;;;;;;5083001;28;20301;-63
2023/05/06 05:42:48;;;;;;;24.73;22.07;;;;;;;;;;5087966;28;20819;-63
2023/05/06 05:45:14;;;;;;;24.58;19.92;;;;;;;;;;5080019;28;20226;-63
2023/05/06 05:47:39;;;;;;;40.22;21.08;;;;;;;;;;5072183;28;20206;-62
2023/05/06 05:50:05;;;;;;;26.02;20.15;;;;;;;;;;5070907;28;20207;-63
2023/05/06 05:52:30;;;;;;;21.83;19.52;;;;;;;;;;5072068;28;20214;-62
2023/05/06 05:54:55;;;;;;;31.70;21.10;;;;;;;;;;5071188;28;20210;-63
2023/05/06 05:57:21;;;;;;;24.50;20.52;;;;;;;;;;5071446;28;20283;-63
2023/05/06 05:59:46;;;;;;;24.67;20.63;;;;;;;;;;5071605;28;20702;-63
2023/05/06 06:02:11;;;;;;;23.20;20.35;;;;;;;;;;5070506;28;20209;-63
2023/05/06 06:04:36;;;;;;;29.73;18.48;;;;;;;;;;5079771;28;20206;-62
2023/05/06 06:07:02;;;;;;;26.02;19.40;;;;;;;;;;5077582;28;20206;-65
2023/05/06 06:09:27;;;;;;;23.80;19.17;;;;;;;;;;5084134;28;20237;-63
2023/05/06 06:11:53;;;;;;;30.25;20.25;;;;;;;;;;5091603;28;20248;-60
2023/05/06 06:14:18;;;;;;;33.03;20.40;;;;;;;;;;5091340;28;20218;-61
2023/05/06 06:16:43;;;;;;;22.05;18.73;;;;;;;;;;5081600;28;20301;-63
2023/05/06 06:19:08;;;;;;;21.10;18.80;;;;;;;;;;5071024;28;20214;-64
2023/05/06 06:21:34;;;;;;;20.10;18.00;;;;;;;;;;5071498;28;20234;-64
2023/05/06 06:24:00;;;;;;;21.33;18.90;;;;;;;;;;5071808;28;20220;-63
2023/05/06 06:26:25;;;;;;;19.80;17.70;;;;;;;;;;5081417;28;20693;-61
2023/05/06 06:28:50;;;;;;;18.58;16.58;;;;;;;;;;5078100;28;20219;-64
2023/05/06 06:31:15;;;;;;;18.27;16.38;;;;;;;;;;5049953;28;20203;-65
2023/05/06 06:33:41;;;;;;;18.48;16.50;;;;;;;;;;5069327;28;20217;-64
2023/05/06 06:36:06;;;;;;;18.88;16.27;;;;;;;;;;5074819;28;20717;-61
2023/05/06 06:38:31;;;;;;;19.27;17.27;;;;;;;;;;5070384;28;20339;-62
2023/05/06 06:40:57;;;;;;;19.17;17.25;;;;;;;;;;5070999;28;20215;-62
2023/05/06 06:43:23;;;;;;;21.60;17.80;;;;;;;;;;5070543;28;20203;-62
2023/05/06 06:45:49;;;;;;;20.60;18.40;;;;;;;;;;5070062;28;20206;-62
2023/05/06 06:48:15;;;;;;;19.88;17.85;;;;;;;;;;5074895;28;20683;-62
2023/05/06 06:50:40;;;;;;;21.80;19.50;;;;;;;;;;5089820;28;20206;-63
2023/05/06 06:53:05;;;;;;;16.38;7.75;;;;;;;;;;5088512;28;20597;-63
2023/05/06 06:55:31;;;;;;;17.05;6.80;;;;;;;;;;5090983;28;20738;-63
2023/05/06 06:57:56;;;;;;;14.77;8.55;;;;;;;;;;5083558;28;20287;-63
2023/05/06 07:00:21;;;;;;;9.85;8.15;;;;;;;;;;5069418;28;20237;-64
2023/05/06 07:02:48;;;;;;;12.43;8.50;;;;;;;;;;5070554;28;20666;-63
2023/05/06 07:05:13;;;;;;;12.93;10.27;;;;;;;;;;5069706;28;20290;-63
2023/05/06 07:07:38;;;;;;;12.60;11.18;;;;;;;;;;5068813;28;20229;-63
2023/05/06 07:10:04;;;;;;;20.20;18.10;;;;;;;;;;5080026;28;20217;-63
2023/05/06 07:12:29;;;;;;;13.77;12.25;;;;;;;;;;5089631;28;20225;-63
2023/05/06 07:14:55;;;;;;;14.38;11.85;;;;;;;;;;5090475;28;20221;-63
2023/05/06 07:17:20;;;;;;;11.23;10.10;;;;;;;;;;5080567;28;20291;-63
2023/05/06 07:19:45;;;;;;;14.63;12.48;;;;;;;;;;5080488;28;20731;-63
2023/05/06 07:22:11;;;;;;;14.77;13.27;;;;;;;;;;5082521;28;20205;-62
2023/05/06 07:24:36;;;;;;;17.08;15.27;;;;;;;;;;5080300;28;20194;-63
2023/05/06 07:27:01;;;;;;;14.68;12.15;;;;;;;;;;5082810;28;20300;-63
2023/05/06 07:29:27;;;;;;;14.25;12.35;;;;;;;;;;5081737;28;20255;-63
2023/05/06 07:31:52;;;;;;;14.57;13.05;;;;;;;;;;5088784;28;20275;-63
2023/05/06 07:34:18;;;;;;;19.35;14.57;;;;;;;;;;5089105;28;20312;-63
2023/05/06 07:36:43;;;;;;;13.02;11.63;;;;;;;;;;5077500;28;20602;-63
2023/05/06 07:39:09;;;;;;;12.05;10.80;;;;;;;;;;5069742;28;20225;-63
2023/05/06 07:41:35;;;;;;;14.43;12.65;;;;;;;;;;5050975;28;20210;-63
2023/05/06 07:44:00;;;;;;;15.48;12.18;;;;;;;;;;5051616;28;20321;-63
2023/05/06 07:46:25;;;;;;;12.68;11.27;;;;;;;;;;5069331;28;20348;-63
2023/05/06 07:48:50;;;;;;;19.42;16.23;;;;;;;;;;5069142;28;20215;-64
2023/05/06 07:51:16;;;;;;;16.35;14.60;;;;;;;;;;5069314;28;20234;-64
2023/05/06 07:53:41;;;;;;;17.05;15.25;;;;;;;;;;5069835;28;20210;-63
2023/05/06 07:56:07;;;;;;;18.15;16.35;;;;;;;;;;5068505;28;20353;-63
2023/05/06 07:58:32;;;;;;;14.23;12.73;;;;;;;;;;5069570;28;20210;-63
2023/05/06 08:00:57;;;;;;;18.25;15.90;;;;;;;;;;5068345;28;20305;-63
2023/05/06 08:03:23;;;;;;;14.60;12.63;;;;;;;;;;5068340;28;20211;-64
2023/05/06 08:05:49;;;;;;;16.63;14.93;;;;;;;;;;5076854;28;20217;-64
2023/05/06 08:08:14;;;;;;;13.82;12.43;;;;;;;;;;5089353;28;20221;-64
2023/05/06 08:10:39;;;;;;;13.98;12.57;;;;;;;;;;5073997;28;20631;-64
2023/05/06 08:13:05;;;;;;;16.77;14.43;;;;;;;;;;5068825;28;20222;-64
2023/05/06 08:15:30;;;;;;;16.20;14.50;;;;;;;;;;5069586;28;20222;-64
2023/05/06 08:17:56;;;;;;;15.32;13.75;;;;;;;;;;5088226;28;20286;-64
2023/05/06 08:20:22;;;;;;;16.95;14.63;;;;;;;;;;5089189;28;20229;-64
2023/05/06 08:22:47;;;;;;;12.88;11.30;;;;;;;;;;5089117;28;20592;-64
2023/05/06 08:25:12;;;;;;;13.27;11.75;;;;;;;;;;5089249;28;20430;-63
2023/05/06 08:27:38;;;;;;;15.05;13.45;;;;;;;;;;5089566;28;20784;-64
2023/05/06 08:30:04;;;;;;;14.95;13.32;;;;;;;;;;5089764;28;20210;-64
2023/05/06 08:32:29;;;;;;;13.40;11.85;;;;;;;;;;5093510;28;20623;-64
2023/05/06 08:34:55;;;;;;;16.20;14.27;;;;;;;;;;5093652;28;20267;-64
2023/05/06 08:37:20;;;;;;;14.90;13.40;;;;;;;;;;5075862;28;20297;-64
2023/05/06 08:39:45;;;;;;;15.05;12.50;;;;;;;;;;5073474;28;20407;-64
2023/05/06 08:42:11;;;;;;;13.95;12.13;;;;;;;;;;5072680;28;20211;-64
2023/05/06 08:44:37;;;;;;;14.38;11.80;;;;;;;;;;5072390;28;20713;-64
2023/05/06 08:47:02;;;;;;;13.38;11.88;;;;;;;;;;5071469;28;20247;-63
2023/05/06 08:49:27;;;;;;;14.20;12.68;;;;;;;;;;5072990;28;20209;-64
2023/05/06 08:51:53;;;;;;;14.18;12.00;;;;;;;;;;5072467;28;20209;-65
2023/05/06 08:54:18;;;;;;;18.55;12.77;;;;;;;;;;5072595;28;20685;-65
2023/05/06 08:56:45;;;;;;;14.00;11.45;;;;;;;;;;5071472;28;20222;-64
2023/05/06 08:59:12;;;;;;;12.93;11.48;;;;;;;;;;5070250;28;20206;-64
2023/05/06 09:01:37;;;;;;;15.13;13.50;;;;;;;;;;5072972;28;20293;-64
2023/05/06 09:04:03;;;;;;;14.93;11.77;;;;;;;;;;5070935;28;20301;-64
2023/05/06 09:06:28;;;;;;;14.55;11.77;;;;;;;;;;5071826;28;20206;-64
2023/05/06 09:08:53;;;;;;;15.35;11.57;;;;;;;;;;5072887;28;20215;-65
2023/05/06 09:11:28;;;;;;;13.68;11.05;;;;;;;;;;5071957;28;20246;-64
2023/05/06 09:14:06;;;;;;;17.13;11.57;;;;;;;;;;5074495;28;20312;-65
2023/05/06 09:16:31;;;;;;;14.73;11.63;;;;;;;;;;5083081;28;20282;-64
2023/05/06 09:18:58;;;;;;;14.25;11.48;;;;;;;;;;5090568;28;20261;-64
2023/05/06 09:21:33;;;;;;;15.68;10.90;;;;;;;;;;5086158;28;20241;-63
2023/05/06 09:23:59;;;;;;;16.15;11.73;;;;;;;;;;5090986;28;20243;-64
2023/05/06 09:26:25;;;;;;;17.08;11.40;;;;;;;;;;5082441;28;20757;-63
2023/05/06 09:28:50;;;;;;;15.88;13.13;;;;;;;;;;5092585;28;20700;-64
2023/05/06 09:31:15;;;;;;;18.05;13.50;;;;;;;;;;5090738;28;20231;-64
2023/05/06 09:33:41;;;;;;;16.35;13.10;;;;;;;;;;5090256;28;20316;-64
2023/05/06 09:36:06;;;;;;;17.00;13.13;;;;;;;;;;5091988;28;20222;-64
2023/05/06 09:38:31;;;;;;;14.50;11.95;;;;;;;;;;5092509;28;20229;-64
2023/05/06 09:40:57;;;;;;;15.00;11.25;;;;;;;;;;5091580;28;20213;-64
2023/05/06 09:43:22;;;;;;;14.32;12.43;;;;;;;;;;5091303;28;20252;-64
2023/05/06 09:45:48;;;;;;;18.00;12.73;;;;;;;;;;5091092;28;20221;-63
2023/05/06 09:48:13;;;;;;;16.67;12.95;;;;;;;;;;5071352;28;20206;-64
2023/05/06 09:50:38;;;;;;;14.70;12.38;;;;;;;;;;5070753;28;20206;-64
2023/05/06 09:53:04;;;;;;;17.90;12.60;;;;;;;;;;5073616;28;20214;-64
2023/05/06 09:55:29;;;;;;;14.73;11.00;;;;;;;;;;5079720;28;20624;-64
2023/05/06 09:57:54;;;;;;;14.32;11.30;;;;;;;;;;5092204;28;20214;-64
2023/05/06 10:00:25;;;;;;;14.70;10.98;;;;;;;;;;5091522;28;20252;-64
2023/05/06 10:02:50;;;;;;;18.92;12.43;;;;;;;;;;5089623;28;20272;-64
2023/05/06 10:05:16;;;;;;;14.95;12.38;;;;;;;;;;5087567;28;20719;-64
2023/05/06 10:07:41;;;;;;;15.27;12.35;;;;;;;;;;5070598;28;20222;-64
2023/05/06 10:10:08;;;;;;;15.10;11.70;;;;;;;;;;5080820;28;20297;-64
2023/05/06 10:12:34;;;;;;;14.25;10.52;;;;;;;;;;5091677;28;20362;-64
2023/05/06 10:15:00;;;;;;;12.80;10.05;;;;;;;;;;5091667;28;20301;-65
2023/05/06 10:17:25;;;;;;;11.88;9.70;;;;;;;;;;5066886;28;20210;-64
2023/05/06 10:19:51;;;;;;;11.57;9.13;;;;;;;;;;5069970;28;20637;-64
2023/05/06 10:22:21;;;;;;;12.25;9.52;;;;;;;;;;5070218;28;20237;-64
2023/05/06 10:24:51;;;;;;;11.95;8.80;;;;;;;;;;5071491;28;20717;-63
2023/05/06 10:27:17;;;;;;;10.77;8.20;;;;;;;;;;5069511;28;20564;-63
2023/05/06 10:29:42;;;;;;;12.95;9.70;;;;;;;;;;5069219;28;20276;-64
2023/05/06 10:32:08;;;;;;;11.82;9.52;;;;;;;;;;5070459;28;20747;-64
2023/05/06 10:34:36;;;;;;;10.68;7.90;;;;;;;;;;5069821;28;20207;-64
2023/05/06 10:37:01;;;;;;;9.20;7.28;;;;;;;;;;5069618;28;20281;-64
2023/05/06 10:39:26;;;;;;;9.60;6.82;;;;;;;;;;5052997;28;20638;-64
2023/05/06 10:41:52;;;;;;;8.90;6.55;;;;;;;;;;5070958;28;20207;-65
2023/05/06 10:44:17;;;;;;;13.20;6.80;;;;;;;;;;5069783;28;20225;-64
2023/05/06 10:46:55;;;;;;;7.95;5.97;;;;;;;;;;5069172;28;20210;-66
2023/05/06 10:49:21;;;;;;;9.02;6.28;;;;;;;;;;5075734;28;20227;-66
2023/05/06 10:51:47;;;;;;;9.73;5.95;;;;;;;;;;5078000;28;20197;-67
2023/05/06 10:54:18;;;;;;;7.65;5.00;;;;;;;;;;5068424;28;20616;-66
2023/05/06 10:56:44;;;;;;;11.55;6.10;;;;;;;;;;5090790;28;20869;-67
2023/05/06 10:59:10;;;;;;;8.63;5.30;;;;;;;;;;5089859;28;20217;-65
2023/05/06 11:01:35;;;;;;;11.80;5.68;;;;;;;;;;5090404;28;20221;-65
2023/05/06 11:04:03;;;;;;;8.93;5.00;;;;;;;;;;5089079;28;20210;-64
2023/05/06 11:06:33;;;;;;;10.73;6.15;;;;;;;;;;5077369;28;20332;-66
2023/05/06 11:09:00;;;;;;;8.27;5.30;;;;;;;;;;5077701;28;20215;-65
2023/05/06 11:11:44;;;;;;;12.30;4.82;;;;;;;;;;5074764;28;20740;-65
2023/05/06 11:14:11;;;;;;;10.63;5.40;;;;;;;;;;5069858;28;20281;-65
2023/05/06 11:16:47;;;;;;;9.88;5.30;;;;;;;;;;5068476;28;20272;-66
2023/05/06 11:19:18;;;;;;;6.75;4.68;;;;;;;;;;5067827;28;20281;-64
2023/05/06 11:21:43;;;;;;;7.53;4.95;;;;;;;;;;5071550;28;20411;-66
2023/05/06 11:24:09;;;;;;;9.80;5.10;;;;;;;;;;5068469;28;20522;-66
2023/05/06 11:26:35;;;;;;;6.78;4.65;;;;;;;;;;5067965;28;20643;-65
2023/05/06 11:29:01;;;;;;;8.05;5.60;;;;;;;;;;5069904;28;20264;-66
2023/05/06 11:31:26;;;;;;;6.65;4.13;;;;;;;;;;5060638;28;20214;-65
2023/05/06 11:33:53;;;;;;;6.60;4.57;;;;;;;;;;5068460;28;20705;-65
2023/05/06 11:36:18;;;;;;;9.77;5.28;;;;;;;;;;5076364;28;20214;-65
2023/05/06 11:38:48;;;;;;;9.30;5.22;;;;;;;;;;5090799;28;20300;-64
2023/05/06 11:41:13;;;;;;;9.07;5.03;;;;;;;;;;5089604;28;20298;-64
2023/05/06 11:43:39;;;;;;;7.53;4.10;;;;;;;;;;5089338;28;20237;-65
2023/05/06 11:46:04;;;;;;;6.78;3.90;;;;;;;;;;5090211;28;20214;-64
2023/05/06 11:48:29;;;;;;;6.95;3.80;;;;;;;;;;5089717;28;20217;-65
2023/05/06 11:50:55;;;;;;;7.38;3.80;;;;;;;;;;5090417;28;20275;-65
2023/05/06 11:53:21;;;;;;;4.80;3.13;;;;;;;;;;5090058;28;20553;-65
2023/05/06 11:55:47;;;;;;;8.40;4.32;;;;;;;;;;5089671;28;20234;-64
2023/05/06 11:58:13;;;;;;;8.15;4.28;;;;;;;;;;5089990;28;20216;-65
2023/05/06 12:00:49;;;;;;;6.45;3.80;;;;;;;;;;5089689;28;20680;-65
2023/05/06 12:03:14;;;;;;;7.85;3.83;;;;;;;;;;5089837;28;20213;-65
2023/05/06 12:05:40;;;;;;;6.82;3.92;;;;;;;;;;5084409;28;20271;-65
2023/05/06 12:08:05;;;;;;;6.70;4.15;;;;;;;;;;5067446;28;20210;-64
2023/05/06 12:10:31;;;;;;;6.65;3.28;;;;;;;;;;5082527;28;20209;-65
2023/05/06 12:12:56;;;;;;;7.88;3.47;;;;;;;;;;5090034;28;20332;-65
2023/05/06 12:15:21;;;;;;;5.63;3.33;;;;;;;;;;5089020;28;20213;-65
2023/05/06 12:17:47;;;;;;;6.72;4.32;;;;;;;;;;5070460;28;20221;-65
2023/05/06 12:20:12;;;;;;;6.68;3.78;;;;;;;;;;5068081;28;20297;-64
2023/05/06 12:22:37;;;;;;;6.05;4.03;;;;;;;;;;5068266;28;20268;-65
2023/05/06 12:25:13;;;;;;;7.72;4.43;;;;;;;;;;5089845;28;20218;-64
2023/05/06 12:27:38;;;;;;;9.15;4.57;;;;;;;;;;5088786;28;20284;-65
2023/05/06 12:30:04;;;;;;;9.63;5.38;;;;;;;;;;5089022;28;20707;-64
2023/05/06 12:32:29;;;;;;;9.63;4.85;;;;;;;;;;5082225;28;20685;-65
2023/05/06 12:34:55;;;;;;;6.45;3.78;;;;;;;;;;5073098;28;20282;-65
2023/05/06 12:37:26;;;;;;;6.88;3.45;;;;;;;;;;5065113;28;20261;-67
2023/05/06 12:39:51;;;;;;;8.25;4.53;;;;;;;;;;5076637;28;20206;-65
2023/05/06 12:42:20;;;;;;;7.82;4.57;;;;;;;;;;5071496;28;20222;-65
2023/05/06 12:44:45;;;;;;;6.70;4.40;;;;;;;;;;5083148;28;20250;-65
2023/05/06 12:47:18;;;;;;;8.48;4.50;;;;;;;;;;5083311;28;20217;-65
2023/05/06 12:49:45;;;;;;;7.65;4.68;;;;;;;;;;5079689;28;20578;-65
2023/05/06 12:52:11;;;;;;;7.65;4.53;;;;;;;;;;5082142;28;20210;-64
2023/05/06 12:54:36;;;;;;;7.93;4.68;;;;;;;;;;5083521;28;20210;-65
2023/05/06 12:57:01;;;;;;;7.93;4.70;;;;;;;;;;5074933;28;20729;-64
2023/05/06 12:59:27;;;;;;;7.22;5.10;;;;;;;;;;5076230;28;20206;-65
2023/05/06 13:01:52;;;;;;;8.85;5.05;;;;;;;;;;5077595;28;20591;-65
2023/05/06 13:04:17;;;;;;;8.68;5.15;;;;;;;;;;5080945;28;20258;-65
2023/05/06 13:06:43;;;;;;;14.15;5.25;;;;;;;;;;5072192;28;20210;-65
2023/05/06 13:09:08;;;;;;;7.28;4.50;;;;;;;;;;5080748;28;20221;-65
2023/05/06 13:11:33;;;;;;;7.53;4.80;;;;;;;;;;5063302;28;20218;-65
2023/05/06 13:13:59;;;;;;;7.53;4.25;;;;;;;;;;5064245;28;20304;-65
2023/05/06 13:16:24;;;;;;;6.75;3.42;;;;;;;;;;5063653;28;20728;-64
2023/05/06 13:18:50;;;;;;;8.15;4.97;;;;;;;;;;5060328;28;20222;-65
2023/05/06 13:21:15;;;;;;;7.95;4.35;;;;;;;;;;5059604;28;20783;-65
2023/05/06 13:23:45;;;;;;;7.82;4.93;;;;;;;;;;5060600;28;20266;-65
2023/05/06 13:26:11;;;;;;;8.05;5.13;;;;;;;;;;5082884;28;20735;-65
2023/05/06 13:28:38;;;;;;;8.20;5.07;;;;;;;;;;5087325;28;20218;-65
2023/05/06 13:31:03;;;;;;;6.93;5.15;;;;;;;;;;5067148;28;20637;-64
2023/05/06 13:33:29;;;;;;;8.13;4.63;;;;;;;;;;5070710;28;20239;-65
2023/05/06 13:35:54;;;;;;;8.07;5.25;;;;;;;;;;5072307;28;20203;-64
2023/05/06 13:38:19;;;;;;;10.10;4.75;;;;;;;;;;5072436;28;20210;-64
2023/05/06 13:40:47;;;;;;;8.80;5.07;;;;;;;;;;5070276;28;20674;-64
2023/05/06 13:43:12;;;;;;;9.52;4.75;;;;;;;;;;5070793;28;20207;-64
2023/05/06 13:45:37;;;;;;;6.90;3.50;;;;;;;;;;5072887;28;20217;-65
2023/05/06 13:48:02;;;;;;;5.57;2.85;;;;;;;;;;5071322;28;20264;-64
2023/05/06 13:50:28;;;;;;;5.03;2.75;;;;;;;;;;5072397;28;20802;-65
2023/05/06 13:52:53;;;;;;;4.80;2.80;;;;;;;;;;5072655;28;20221;-65
2023/05/06 13:55:18;;;;;;;5.15;2.63;;;;;;;;;;5071045;28;20222;-65
2023/05/06 13:57:43;;;;;;;8.00;3.30;;;;;;;;;;5072453;28;20352;-65
2023/05/06 14:00:09;;;;;;;6.35;3.20;;;;;;;;;;5071801;28;20215;-65
2023/05/06 14:02:35;;;;;;;6.72;2.63;;;;;;;;;;5070763;28;20207;-65
2023/05/06 14:05:00;;;;;;;7.05;2.30;;;;;;;;;;5071890;28;20321;-65
2023/05/06 14:07:26;;;;;;;4.57;2.47;;;;;;;;;;5086016;28;20214;-65
2023/05/06 14:09:51;;;;;;;5.30;2.78;;;;;;;;;;5080954;28;20293;-65
2023/05/06 14:12:16;;;;;;;9.80;2.65;;;;;;;;;;5071669;28;20305;-65
2023/05/06 14:14:42;;;;;;;5.07;2.85;;;;;;;;;;5070795;28;20558;-65